createdAt,value
2022-07-25T00:01:57.180Z,101541.28
2022-07-25T00:04:25.888Z,101528.94
2022-07-25T00:06:53.437Z,101523.03
2022-07-25T00:09:20.983Z,101528.38
2022-07-25T00:11:49.357Z,101525.09
2022-07-25T00:14:16.943Z,101519.94
2022-07-25T00:16:45.041Z,101515.56
2022-07-25T00:19:12.880Z,101508.63
2022-07-25T00:21:40.319Z,101515.78
2022-07-25T00:24:09.762Z,101497.44
2022-07-25T00:26:40.323Z,101503.81
2022-07-25T00:29:08.294Z,101497.44
2022-07-25T00:31:35.988Z,101500.19
2022-07-25T00:34:04.925Z,101508.22
2022-07-25T00:36:33.088Z,101502.00
2022-07-25T00:39:00.714Z,101492.16
2022-07-25T00:41:28.666Z,101492.25
2022-07-25T00:43:56.221Z,101494.16
2022-07-25T00:46:23.532Z,101494.34
2022-07-25T00:48:51.322Z,101492.63
2022-07-25T00:51:19.385Z,101497.88
2022-07-25T00:53:47.344Z,101492.63
2022-07-25T00:56:16.980Z,101490.97
2022-07-25T00:58:45.571Z,101497.28
2022-07-25T01:01:13.471Z,101486.66
2022-07-25T01:03:40.917Z,101488.47
2022-07-25T01:06:08.945Z,101486.00
2022-07-25T01:08:36.740Z,101488.75
2022-07-25T01:11:04.735Z,101488.00
2022-07-25T01:13:34.508Z,101488.16
2022-07-25T01:16:01.792Z,101490.00
2022-07-25T01:18:28.979Z,101486.53
2022-07-25T01:20:56.030Z,101486.53
2022-07-25T01:23:23.173Z,101475.06
2022-07-25T01:25:50.155Z,101482.41
2022-07-25T01:28:18.662Z,101471.78
2022-07-25T01:30:46.020Z,101474.75
2022-07-25T01:33:18.766Z,101480.00
2022-07-25T01:35:47.625Z,101472.94
2022-07-25T01:38:15.683Z,101469.47
2022-07-25T01:40:43.995Z,101468.91
2022-07-25T01:43:12.005Z,101469.84
2022-07-25T01:45:39.029Z,101471.75
2022-07-25T01:48:06.520Z,101473.47
2022-07-25T01:50:33.833Z,101463.88
2022-07-25T01:53:01.004Z,101459.31
2022-07-25T01:55:28.181Z,101452.41
2022-07-25T01:57:57.084Z,101456.06
2022-07-25T02:00:24.793Z,101453.41
2022-07-25T02:03:11.756Z,101459.56
2022-07-25T02:05:38.797Z,101450.03
2022-07-25T02:08:06.075Z,101456.06
2022-07-25T02:10:33.279Z,101457.75
2022-07-25T02:13:01.353Z,101456.06
2022-07-25T02:15:28.517Z,101457.09
2022-07-25T02:17:55.711Z,101453.47
2022-07-25T02:20:22.926Z,101452.78
2022-07-25T02:23:10.188Z,101445.63
2022-07-25T02:25:37.379Z,101452.78
2022-07-25T02:28:04.811Z,101451.06
2022-07-25T02:30:32.029Z,101437.09
2022-07-25T02:33:00.140Z,101437.09
2022-07-25T02:35:27.319Z,101441.56
2022-07-25T02:37:54.879Z,101437.41
2022-07-25T02:40:22.049Z,101434.94
2022-07-25T02:42:49.107Z,101436.03
2022-07-25T02:45:16.097Z,101436.13
2022-07-25T02:47:43.097Z,101422.13
2022-07-25T02:50:14.464Z,101418.81
2022-07-25T02:52:43.425Z,101435.47
2022-07-25T02:55:11.924Z,101424.16
2022-07-25T02:57:39.154Z,101429.34
2022-07-25T03:00:08.345Z,101429.50
2022-07-25T03:02:36.456Z,101417.47
2022-07-25T03:05:08.369Z,101411.91
2022-07-25T03:07:36.314Z,101419.00
2022-07-25T03:10:11.029Z,101413.84
2022-07-25T03:12:47.450Z,101409.25
2022-07-25T03:15:14.532Z,101415.56
2022-07-25T03:17:42.315Z,101418.13
2022-07-25T03:20:11.109Z,101405.06
2022-07-25T03:22:38.269Z,101403.91
2022-07-25T03:25:05.877Z,101405.63
2022-07-25T03:27:42.541Z,101413.66
2022-07-25T03:30:10.218Z,101404.78
2022-07-25T03:32:37.336Z,101389.63
2022-07-25T03:35:05.199Z,101395.66
2022-07-25T03:37:32.344Z,101379.72
2022-07-25T03:39:59.405Z,101378.00
2022-07-25T03:42:26.829Z,101369.03
2022-07-25T03:44:54.015Z,101370.78
2022-07-25T03:47:21.085Z,101363.53
2022-07-25T03:49:48.135Z,101346.75
2022-07-25T03:52:15.138Z,101350.97
2022-07-25T03:54:42.094Z,101352.16
2022-07-25T03:57:09.154Z,101345.94
2022-07-25T03:59:36.217Z,101349.00
2022-07-25T04:02:03.306Z,101348.75
2022-07-25T04:04:30.464Z,101335.59
2022-07-25T04:06:57.517Z,101338.38
2022-07-25T04:09:24.525Z,101332.00
2022-07-25T04:11:51.487Z,101325.09
2022-07-25T04:14:18.492Z,101317.22
2022-07-25T04:16:45.578Z,101327.94
2022-07-25T04:19:12.965Z,101305.47
2022-07-25T04:21:40.155Z,101308.47
2022-07-25T04:24:07.873Z,101300.88
2022-07-25T04:26:35.068Z,101302.25
2022-07-25T04:29:03.699Z,101300.09
2022-07-25T04:31:30.794Z,101297.84
2022-07-25T04:33:57.828Z,101288.75
2022-07-25T04:36:24.999Z,101284.00
2022-07-25T04:38:52.637Z,101290.22
2022-07-25T04:41:19.634Z,101286.97
2022-07-25T04:43:48.889Z,101280.06
2022-07-25T04:46:23.457Z,101272.81
2022-07-25T04:48:51.178Z,101272.38
2022-07-25T04:51:19.142Z,101272.91
2022-07-25T04:53:46.708Z,101248.88
2022-07-25T04:56:13.759Z,101257.84
2022-07-25T04:58:41.217Z,101263.44
2022-07-25T05:01:08.595Z,101255.59
2022-07-25T05:03:35.646Z,101257.84
2022-07-25T05:06:02.952Z,101246.94
2022-07-25T05:08:30.734Z,101240.06
2022-07-25T05:10:57.754Z,101244.47
2022-07-25T05:13:24.841Z,101238.25
2022-07-25T05:15:52.005Z,101237.28
2022-07-25T05:18:19.103Z,101229.94
2022-07-25T05:20:46.248Z,101231.03
2022-07-25T05:23:13.340Z,101225.78
2022-07-25T05:25:40.449Z,101223.69
2022-07-25T05:28:07.409Z,101218.88
2022-07-25T05:30:39.617Z,101218.88
2022-07-25T05:33:07.215Z,101212.66
2022-07-25T05:35:34.448Z,101216.84
2022-07-25T05:38:01.450Z,101213.91
2022-07-25T05:40:28.434Z,101218.22
2022-07-25T05:42:58.297Z,101207.44
2022-07-25T05:45:29.459Z,101207.19
2022-07-25T05:47:56.497Z,101208.44
2022-07-25T05:50:23.753Z,101202.31
2022-07-25T05:52:50.919Z,101201.81
2022-07-25T05:55:18.095Z,101193.53
2022-07-25T05:57:45.611Z,101198.16
2022-07-25T06:00:13.215Z,101194.16
2022-07-25T06:02:40.333Z,101188.63
2022-07-25T06:05:07.862Z,101184.63
2022-07-25T06:07:34.895Z,101176.16
2022-07-25T06:10:01.900Z,101180.34
2022-07-25T06:12:28.888Z,101170.06
2022-07-25T06:14:56.787Z,101171.53
2022-07-25T06:17:25.995Z,101169.69
2022-07-25T06:19:56.190Z,101164.19
2022-07-25T06:22:23.677Z,101164.69
2022-07-25T06:24:50.674Z,101156.38
2022-07-25T06:27:20.659Z,101157.09
2022-07-25T06:29:49.451Z,101158.06
2022-07-25T06:32:16.399Z,101150.75
2022-07-25T06:34:43.633Z,101153.91
2022-07-25T06:37:10.582Z,101150.00
2022-07-25T06:39:40.307Z,101142.16
2022-07-25T06:42:08.407Z,101142.66
2022-07-25T06:44:35.577Z,101147.94
2022-07-25T06:47:03.881Z,101133.34
2022-07-25T06:49:31.537Z,101140.84
2022-07-25T06:51:58.502Z,101118.91
2022-07-25T06:54:25.566Z,101125.56
2022-07-25T06:56:52.710Z,101137.53
2022-07-25T06:59:19.663Z,101126.50
2022-07-25T07:01:51.158Z,101119.75
2022-07-25T07:04:18.615Z,101113.75
2022-07-25T07:07:00.197Z,101105.50
2022-07-25T07:09:27.153Z,101105.19
2022-07-25T07:11:54.180Z,101102.09
2022-07-25T07:14:21.236Z,101089.25
2022-07-25T07:16:48.315Z,101094.44
2022-07-25T07:19:17.360Z,101087.53
2022-07-25T07:21:45.604Z,101085.91
2022-07-25T07:24:24.248Z,101087.84
2022-07-25T07:26:53.901Z,101082.88
2022-07-25T07:29:21.543Z,101078.59
2022-07-25T07:31:48.852Z,101072.63
2022-07-25T07:34:16.302Z,101074.06
2022-07-25T07:36:44.174Z,101076.09
2022-07-25T07:39:11.881Z,101068.63
2022-07-25T07:41:39.427Z,101058.00
2022-07-25T07:44:07.180Z,101054.47
2022-07-25T07:46:34.367Z,101059.72
2022-07-25T07:49:01.623Z,101058.34
2022-07-25T07:51:28.692Z,101051.16
2022-07-25T07:54:14.096Z,101041.94
2022-07-25T07:56:41.964Z,101031.31
2022-07-25T07:59:09.395Z,101027.44
2022-07-25T08:01:37.121Z,101035.28
2022-07-25T08:04:04.841Z,101033.28
2022-07-25T08:06:32.293Z,101030.25
2022-07-25T08:08:59.589Z,101033.13
2022-07-25T08:11:26.882Z,101030.00
2022-07-25T08:13:54.243Z,101017.63
2022-07-25T08:16:21.546Z,101016.09
2022-07-25T08:18:48.788Z,101014.13
2022-07-25T08:21:15.982Z,101010.38
2022-07-25T08:23:45.557Z,101009.72
2022-07-25T08:26:14.234Z,101004.97
2022-07-25T08:28:42.003Z,100991.66
2022-07-25T08:31:09.178Z,100996.06
2022-07-25T08:33:36.281Z,100988.50
2022-07-25T08:36:04.048Z,100988.22
2022-07-25T08:38:31.141Z,100981.25
2022-07-25T08:40:59.813Z,100989.16
2022-07-25T08:43:29.273Z,100978.19
2022-07-25T08:45:56.410Z,100974.63
2022-07-25T08:48:26.652Z,100977.13
2022-07-25T08:50:57.217Z,100971.84
2022-07-25T08:53:34.923Z,100967.66
2022-07-25T08:56:20.435Z,100965.22
2022-07-25T08:58:49.426Z,100978.22
2022-07-25T09:01:16.659Z,100971.53
2022-07-25T09:03:44.226Z,100962.53
2022-07-25T09:06:21.524Z,100955.47
2022-07-25T09:09:00.695Z,100950.22
2022-07-25T09:11:37.379Z,100946.84
2022-07-25T09:14:10.423Z,100946.00
2022-07-25T09:16:41.938Z,100942.66
2022-07-25T09:19:29.329Z,100922.56
2022-07-25T09:22:10.195Z,100924.09
2022-07-25T09:24:45.413Z,100919.72
2022-07-25T09:27:13.034Z,100920.56
2022-07-25T09:29:45.378Z,100912.59
2022-07-25T09:32:22.692Z,100905.16
2022-07-25T09:34:51.440Z,100904.91
2022-07-25T09:37:26.358Z,100901.63
2022-07-25T09:39:53.837Z,100903.88
2022-07-25T09:42:23.937Z,100898.25
2022-07-25T09:45:03.293Z,100890.19
2022-07-25T09:47:32.386Z,100883.00
2022-07-25T09:49:59.481Z,100882.34
2022-07-25T09:52:26.669Z,100878.84
2022-07-25T09:54:54.901Z,100880.72
2022-07-25T09:57:24.140Z,100868.25
2022-07-25T09:59:51.405Z,100874.06
2022-07-25T10:02:28.423Z,100864.94
2022-07-25T10:05:17.858Z,100873.81
2022-07-25T10:07:53.500Z,100866.69
2022-07-25T10:10:30.788Z,100855.69
2022-07-25T10:13:32.661Z,100846.72
2022-07-25T10:15:59.784Z,100855.53
2022-07-25T10:18:30.508Z,100845.22
2022-07-25T10:21:25.452Z,100843.38
2022-07-25T10:24:10.138Z,100846.25
2022-07-25T10:26:40.253Z,100844.69
2022-07-25T10:29:12.775Z,100833.16
2022-07-25T10:31:51.828Z,100832.69
2022-07-25T10:34:33.694Z,100821.69
2022-07-25T10:37:31.177Z,100815.59
2022-07-25T10:39:58.519Z,100820.00
2022-07-25T10:42:27.032Z,100826.84
2022-07-25T10:44:57.593Z,100822.75
2022-07-25T10:47:28.251Z,100809.88
2022-07-25T10:53:09.162Z,100798.56
2022-07-25T10:55:37.123Z,100792.97
2022-07-25T10:58:17.706Z,100778.38
2022-07-25T11:00:45.983Z,100781.44
2022-07-25T11:03:18.155Z,100793.97
2022-07-25T11:05:47.708Z,100781.25
2022-07-25T11:08:23.050Z,100790.59
2022-07-25T11:10:53.613Z,100788.38
2022-07-25T11:13:21.174Z,100788.94
2022-07-25T11:15:48.625Z,100785.19
2022-07-25T11:18:15.808Z,100788.56
2022-07-25T11:20:43.001Z,100779.09
2022-07-25T11:23:10.166Z,100791.28
2022-07-25T11:25:37.514Z,100783.47
2022-07-25T11:28:04.909Z,100770.44
2022-07-25T11:30:32.434Z,100777.03
2022-07-25T11:33:01.708Z,100769.56
2022-07-25T11:35:32.045Z,100759.72
2022-07-25T11:38:03.751Z,100765.47
2022-07-25T11:40:33.828Z,100751.22
2022-07-25T11:43:01.009Z,100754.97
2022-07-25T11:45:33.985Z,100753.94
2022-07-25T11:48:10.538Z,100754.28
2022-07-25T11:50:45.370Z,100740.38
2022-07-25T11:53:17.338Z,100743.28
2022-07-25T11:55:45.049Z,100740.22
2022-07-25T11:58:14.027Z,100742.25
2022-07-25T12:00:44.713Z,100737.53
2022-07-25T12:03:23.158Z,100742.63
2022-07-25T12:05:51.208Z,100732.09
2022-07-25T12:08:21.407Z,100731.25
2022-07-25T12:10:51.578Z,100728.84
2022-07-25T12:13:29.029Z,100732.25
2022-07-25T12:15:58.154Z,100729.53
2022-07-25T12:18:27.509Z,100715.09
2022-07-25T12:20:55.274Z,100720.22
2022-07-25T12:23:22.571Z,100728.69
2022-07-25T12:25:50.566Z,100728.19
2022-07-25T12:28:18.193Z,100723.06
2022-07-25T12:30:47.006Z,100712.88
2022-07-25T12:33:14.855Z,100718.47
2022-07-25T12:35:44.075Z,100708.09
2022-07-25T12:38:11.619Z,100703.66
2022-07-25T12:40:39.177Z,100706.38
2022-07-25T12:43:06.817Z,100699.25
2022-07-25T12:45:34.179Z,100690.53
2022-07-25T12:48:01.414Z,100691.72
2022-07-25T12:50:28.590Z,100683.88
2022-07-25T12:52:55.738Z,100686.94
2022-07-25T12:55:23.202Z,100686.94
2022-07-25T12:57:51.040Z,100674.72
2022-07-25T13:00:21.413Z,100677.25
2022-07-25T13:02:51.225Z,100678.94
2022-07-25T13:05:19.720Z,100672.66
2022-07-25T13:07:48.961Z,100674.72
2022-07-25T13:10:17.863Z,100664.19
2022-07-25T13:12:45.651Z,100661.84
2022-07-25T13:15:12.889Z,100668.66
2022-07-25T13:17:40.526Z,100658.66
2022-07-25T13:20:09.498Z,100653.09
2022-07-25T13:22:36.600Z,100651.44
2022-07-25T13:25:04.427Z,100660.06
2022-07-25T13:27:31.495Z,100669.75
2022-07-25T13:29:58.588Z,100656.03
2022-07-25T13:32:28.329Z,100652.31
2022-07-25T13:34:55.654Z,100662.03
2022-07-25T13:37:22.969Z,100654.94
2022-07-25T13:39:50.139Z,100655.41
2022-07-25T13:42:17.286Z,100656.59
2022-07-25T13:44:44.449Z,100650.50
2022-07-25T13:47:11.643Z,100651.56
2022-07-25T13:49:39.028Z,100655.28
2022-07-25T13:52:06.735Z,100648.16
2022-07-25T13:54:33.835Z,100642.91
2022-07-25T13:57:03.446Z,100638.16
2022-07-25T13:59:30.958Z,100628.16
2022-07-25T14:01:58.317Z,100631.53
2022-07-25T14:04:25.742Z,100631.84
2022-07-25T14:06:52.905Z,100634.06
2022-07-25T14:09:21.476Z,100638.06
2022-07-25T14:11:49.226Z,100621.41
2022-07-25T14:14:16.467Z,100610.50
2022-07-25T14:16:43.662Z,100611.81
2022-07-25T14:19:10.905Z,100601.31
2022-07-25T14:21:38.136Z,100603.97
2022-07-25T14:24:05.549Z,100603.72
2022-07-25T14:26:35.028Z,100601.97
2022-07-25T14:29:02.419Z,100598.91
2022-07-25T14:31:29.873Z,100593.94
2022-07-25T14:33:57.022Z,100586.47
2022-07-25T14:36:24.101Z,100591.72
2022-07-25T14:38:51.296Z,100590.03
2022-07-25T14:41:19.816Z,100580.19
2022-07-25T14:43:46.984Z,100585.34
2022-07-25T14:46:14.753Z,100570.28
2022-07-25T14:48:42.282Z,100562.56
2022-07-25T14:51:09.673Z,100571.59
2022-07-25T14:53:36.959Z,100565.69
2022-07-25T14:56:06.534Z,100562.88
2022-07-25T14:58:34.411Z,100557.28
2022-07-25T15:01:02.125Z,100557.81
2022-07-25T15:03:29.487Z,100552.25
2022-07-25T15:05:56.759Z,100548.09
2022-07-25T15:08:23.917Z,100547.72
2022-07-25T15:10:51.038Z,100548.59
2022-07-25T15:13:31.114Z,100543.38
2022-07-25T15:15:59.075Z,100559.69
2022-07-25T15:18:26.327Z,100551.25
2022-07-25T15:20:55.433Z,100553.66
2022-07-25T15:23:25.489Z,100556.31
2022-07-25T15:26:03.760Z,100557.34
2022-07-25T15:28:37.472Z,100562.13
2022-07-25T15:31:06.581Z,100570.59
2022-07-25T15:33:34.010Z,100589.94
2022-07-25T15:36:01.457Z,100594.94
2022-07-25T15:38:29.258Z,100600.00
2022-07-25T15:40:57.461Z,100598.13
2022-07-25T15:43:26.212Z,100595.19
2022-07-25T15:45:53.662Z,100580.22
2022-07-25T15:48:21.393Z,100578.16
2022-07-25T15:50:54.424Z,100573.00
2022-07-25T15:53:21.914Z,100582.75
2022-07-25T15:55:48.911Z,100573.22
2022-07-25T15:58:15.944Z,100575.19
2022-07-25T16:00:43.596Z,100566.69
2022-07-25T16:03:11.350Z,100567.03
2022-07-25T16:05:39.732Z,100560.94
2022-07-25T16:08:09.886Z,100561.25
2022-07-25T16:10:38.407Z,100559.25
2022-07-25T16:13:05.798Z,100553.66
2022-07-25T16:15:32.942Z,100549.44
2022-07-25T16:18:02.730Z,100540.63
2022-07-25T16:20:32.063Z,100554.13
2022-07-25T16:23:00.414Z,100558.19
2022-07-25T16:25:29.372Z,100571.31
2022-07-25T16:27:58.474Z,100590.09
2022-07-25T16:30:26.711Z,100631.00
2022-07-25T16:32:53.744Z,100635.94
2022-07-25T16:35:21.336Z,100656.78
2022-07-25T16:37:48.332Z,100647.47
2022-07-25T16:40:15.634Z,100679.03
2022-07-25T16:42:43.519Z,100709.75
2022-07-25T16:45:11.222Z,100714.56
2022-07-25T16:47:40.226Z,100709.88
2022-07-25T16:50:07.823Z,100718.72
2022-07-25T16:52:35.213Z,100720.53
2022-07-25T16:55:02.483Z,100701.22
2022-07-25T16:57:29.491Z,100729.69
2022-07-25T16:59:56.636Z,100737.69
2022-07-25T17:02:29.104Z,100728.41
2022-07-25T17:04:57.512Z,100747.34
2022-07-25T17:07:25.985Z,100749.81
2022-07-25T17:09:53.353Z,100774.63
2022-07-25T17:12:21.499Z,100769.16
2022-07-25T17:14:48.676Z,100772.59
2022-07-25T17:17:15.733Z,100782.38
2022-07-25T17:19:43.008Z,100786.53
2022-07-25T17:22:10.945Z,100777.13
2022-07-25T17:24:39.556Z,100796.41
2022-07-25T17:27:08.614Z,100806.66
2022-07-25T17:29:36.420Z,100812.53
2022-07-25T17:32:05.937Z,100821.78
2022-07-25T17:34:34.057Z,100824.94
2022-07-25T17:37:02.917Z,100838.28
2022-07-25T17:39:34.812Z,100843.06
2022-07-25T17:42:07.050Z,100851.19
2022-07-25T17:44:35.199Z,100841.03
2022-07-25T17:47:04.072Z,100829.28
2022-07-25T17:49:31.326Z,100830.63
2022-07-25T17:51:58.392Z,100821.94
2022-07-25T17:54:25.574Z,100819.91
2022-07-25T17:56:52.850Z,100831.09
2022-07-25T17:59:19.858Z,100826.91
2022-07-25T18:01:46.989Z,100836.34
2022-07-25T18:04:15.371Z,100853.03
2022-07-25T18:06:42.503Z,100865.72
2022-07-25T18:09:09.504Z,100877.25
2022-07-25T18:11:36.590Z,100864.22
2022-07-25T18:14:04.080Z,100864.00
2022-07-25T18:16:31.666Z,100864.31
2022-07-25T18:18:59.892Z,100831.25
2022-07-25T18:21:30.394Z,100853.44
2022-07-25T18:23:57.514Z,100879.69
2022-07-25T18:26:24.715Z,100891.88
2022-07-25T18:28:52.134Z,100894.53
2022-07-25T18:31:19.298Z,100895.50
2022-07-25T18:33:46.501Z,100906.22
2022-07-25T18:36:13.542Z,100919.31
2022-07-25T18:38:40.805Z,100905.41
2022-07-25T18:41:28.490Z,100903.44
2022-07-25T18:43:56.774Z,100906.47
2022-07-25T18:46:25.126Z,100895.75
2022-07-25T18:48:52.805Z,100897.22
2022-07-25T18:51:20.985Z,100889.94
2022-07-25T18:53:48.824Z,100869.50
2022-07-25T18:56:16.942Z,100877.00
2022-07-25T18:58:44.783Z,100886.78
2022-07-25T19:01:12.820Z,100903.69
2022-07-25T19:03:40.752Z,100921.84
2022-07-25T19:06:09.992Z,100911.16
2022-07-25T19:08:37.802Z,100921.00
2022-07-25T19:11:05.297Z,100923.16
2022-07-25T19:13:51.130Z,100931.59
2022-07-25T19:16:19.614Z,100933.66
2022-07-25T19:18:47.670Z,100927.03
2022-07-25T19:21:15.353Z,100912.13
2022-07-25T19:23:48.217Z,100914.81
2022-07-25T19:26:17.609Z,100923.59
2022-07-25T19:28:44.641Z,100923.34
2022-07-25T19:31:11.819Z,100923.34
2022-07-25T19:33:39.004Z,100928.31
2022-07-25T19:36:06.735Z,100944.47
2022-07-25T19:38:34.021Z,100937.38
2022-07-25T19:41:01.864Z,100951.19
2022-07-25T19:43:29.063Z,100936.63
2022-07-25T19:45:56.264Z,100948.84
2022-07-25T19:48:24.066Z,100949.72
2022-07-25T19:50:52.734Z,100933.41
2022-07-25T19:53:21.311Z,100925.72
2022-07-25T19:55:51.195Z,100932.16
2022-07-25T19:58:20.313Z,100928.53
2022-07-25T20:00:48.466Z,100919.75
2022-07-25T20:03:15.831Z,100925.84
2022-07-25T20:05:42.957Z,100918.91
2022-07-25T20:08:09.972Z,100922.44
2022-07-25T20:10:37.294Z,100935.56
2022-07-25T20:13:04.932Z,100943.59
2022-07-25T20:15:32.356Z,100936.44
2022-07-25T20:18:00.166Z,100938.16
2022-07-25T20:20:27.283Z,100947.03
2022-07-25T20:22:54.750Z,100933.25
2022-07-25T20:25:22.243Z,100942.88
2022-07-25T20:27:49.871Z,100936.19
2022-07-25T20:30:18.181Z,100936.31
2022-07-25T20:32:45.295Z,100938.88
2022-07-25T20:35:12.774Z,100942.50
2022-07-25T20:37:40.052Z,100941.69
2022-07-25T20:40:08.691Z,100954.06
2022-07-25T20:42:37.214Z,100955.69
2022-07-25T20:45:06.199Z,100958.56
2022-07-25T20:47:34.177Z,100964.66
2022-07-25T20:50:01.726Z,100962.09
2022-07-25T20:52:30.249Z,100953.44
2022-07-25T20:54:57.324Z,100958.69
2022-07-25T20:57:24.532Z,100971.22
2022-07-25T20:59:51.670Z,100971.31
2022-07-25T21:02:18.919Z,100973.16
2022-07-25T21:04:48.430Z,100978.69
2022-07-25T21:07:16.996Z,100976.13
2022-07-25T21:09:44.806Z,100978.94
2022-07-25T21:12:11.908Z,100976.34
2022-07-25T21:14:38.949Z,100979.53
2022-07-25T21:17:07.251Z,100977.72
2022-07-25T21:19:34.577Z,100982.47
2022-07-25T21:22:02.801Z,100979.88
2022-07-25T21:24:31.494Z,100975.59
2022-07-25T21:26:58.712Z,100995.06
2022-07-25T21:29:25.807Z,100982.84
2022-07-25T21:31:54.226Z,100981.28
2022-07-25T21:34:21.797Z,100990.16
2022-07-25T21:36:48.887Z,100976.97
2022-07-25T21:39:16.546Z,100986.72
2022-07-25T21:41:44.801Z,100985.44
2022-07-25T21:44:13.918Z,100988.13
2022-07-25T21:46:42.292Z,100992.16
2022-07-25T21:49:41.636Z,100995.47
2022-07-25T21:52:13.380Z,100996.72
2022-07-25T21:54:43.165Z,100984.34
2022-07-25T21:57:14.232Z,100996.97
2022-07-25T21:59:45.830Z,100995.53
2022-07-25T22:02:13.741Z,100998.44
2022-07-25T22:04:51.482Z,101004.19
2022-07-25T22:07:18.685Z,100999.88
2022-07-25T22:09:46.112Z,101003.50
2022-07-25T22:12:14.572Z,100995.78
2022-07-25T22:14:41.636Z,101007.53
2022-07-25T22:17:09.252Z,101006.03
2022-07-25T22:19:37.151Z,101001.06
2022-07-25T22:22:06.780Z,100994.44
2022-07-25T22:24:34.294Z,100991.00
2022-07-25T22:27:01.521Z,100994.25
2022-07-25T22:29:28.631Z,101006.84
2022-07-25T22:31:56.080Z,101010.28
2022-07-25T22:34:23.336Z,101003.63
2022-07-25T22:36:50.424Z,101008.97
2022-07-25T22:39:17.900Z,101009.50
2022-07-25T22:41:46.201Z,101001.91
2022-07-25T22:44:13.361Z,101017.72
2022-07-25T22:46:40.424Z,101010.47
2022-07-25T22:49:08.459Z,101008.75
2022-07-25T22:51:35.732Z,101010.66
2022-07-25T22:54:03.035Z,101024.03
2022-07-25T22:56:30.291Z,101019.66
2022-07-25T22:58:57.760Z,101020.81
2022-07-25T23:01:24.876Z,101021.56
2022-07-25T23:03:52.397Z,101020.03
2022-07-25T23:06:21.747Z,101027.09
2022-07-25T23:08:49.956Z,101017.69
2022-07-25T23:11:17.807Z,101027.50
2022-07-25T23:13:44.978Z,101022.53
2022-07-25T23:16:12.300Z,101032.47
2022-07-25T23:18:40.068Z,101022.09
2022-07-25T23:21:07.267Z,101016.94
2022-07-25T23:23:34.668Z,101008.28
2022-07-25T23:26:02.419Z,101012.00
2022-07-25T23:28:29.588Z,101003.97
2022-07-25T23:30:56.902Z,100997.19
2022-07-25T23:33:25.611Z,100988.44
2022-07-25T23:35:54.431Z,100989.38
2022-07-25T23:38:22.635Z,100993.09
2022-07-25T23:40:50.316Z,100993.09
2022-07-25T23:43:56.321Z,100984.53
2022-07-25T23:46:05.413Z,100990.91
2022-07-25T23:48:35.084Z,100991.78
2022-07-25T23:51:02.444Z,100997.22
2022-07-25T23:53:29.750Z,100997.47
2022-07-25T23:55:57.107Z,100995.69
2022-07-25T23:58:24.279Z,100980.25
